createdAt,value
2019-05-22T00:03:41.284Z,16.40
2019-05-22T00:08:47.900Z,16.40
2019-05-22T00:13:51.269Z,16.40
2019-05-22T00:18:54.673Z,16.40
2019-05-22T00:24:00.395Z,16.30
2019-05-22T00:29:04.233Z,16.20
2019-05-22T00:34:09.093Z,16.20
2019-05-22T00:39:13.844Z,16.30
2019-05-22T00:44:18.692Z,16.20
2019-05-22T00:49:24.108Z,16.20
2019-05-22T00:54:37.312Z,16.20
2019-05-22T00:59:41.178Z,16.10
2019-05-22T01:04:46.230Z,16.10
2019-05-22T01:09:55.095Z,16.10
2019-05-22T01:15:03.728Z,16.00
2019-05-22T01:20:14.069Z,16.00
2019-05-22T01:25:21.475Z,16.00
2019-05-22T01:30:33.832Z,16.00
2019-05-22T01:35:36.678Z,15.90
2019-05-22T01:40:47.509Z,15.80
2019-05-22T01:45:52.488Z,15.80
2019-05-22T01:50:56.868Z,15.90
2019-05-22T01:56:05.878Z,15.90
2019-05-22T02:01:13.975Z,15.90
2019-05-22T02:06:18.720Z,15.90
2019-05-22T02:11:22.748Z,15.90
2019-05-22T02:16:28.499Z,15.90
2019-05-22T02:21:33.262Z,15.80
2019-05-22T02:26:36.807Z,15.80
2019-05-22T02:31:43.138Z,15.80
2019-05-22T02:36:46.569Z,15.70
2019-05-22T02:41:53.474Z,15.60
2019-05-22T02:47:16.777Z,15.50
2019-05-22T02:52:06.111Z,15.50
2019-05-22T02:57:11.296Z,15.40
2019-05-22T03:02:15.107Z,15.50
2019-05-22T03:07:20.135Z,15.50
2019-05-22T03:12:23.775Z,15.40
2019-05-22T03:17:30.839Z,15.40
2019-05-22T03:23:06.132Z,15.30
2019-05-22T03:28:09.244Z,15.20
2019-05-22T03:33:12.874Z,15.10
2019-05-22T03:38:16.948Z,15.10
2019-05-22T03:43:23.157Z,15.10
2019-05-22T03:48:29.985Z,15.10
2019-05-22T03:53:32.675Z,15.10
2019-05-22T03:58:35.650Z,15.00
2019-05-22T04:03:39.768Z,15.00
2019-05-22T04:08:43.304Z,15.00
2019-05-22T04:13:47.102Z,15.00
2019-05-22T04:18:52.837Z,15.00
2019-05-22T04:23:55.548Z,15.00
2019-05-22T04:28:59.437Z,15.00
2019-05-22T04:34:02.477Z,15.10
2019-05-22T04:39:07.949Z,15.10
2019-05-22T04:44:11.022Z,15.40
2019-05-22T04:49:14.241Z,15.70
2019-05-22T04:54:17.266Z,15.90
2019-05-22T04:59:20.360Z,16.30
2019-05-22T05:04:23.597Z,16.40
2019-05-22T05:09:26.471Z,16.50
2019-05-22T05:14:30.011Z,16.70
2019-05-22T05:19:32.895Z,16.60
2019-05-22T05:24:35.628Z,16.60
2019-05-22T05:29:39.303Z,16.50
2019-05-22T05:34:56.185Z,16.50
2019-05-22T05:45:59.074Z,16.50
2019-05-22T05:51:38.657Z,16.40
2019-05-22T05:56:42.810Z,16.40
2019-05-22T06:01:48.240Z,16.40
2019-05-22T06:07:21.399Z,16.40
2019-05-22T06:12:24.585Z,16.40
2019-05-22T06:18:15.874Z,16.60
2019-05-22T06:24:02.287Z,16.70
2019-05-22T06:29:07.303Z,16.70
2019-05-22T06:34:12.861Z,16.80
2019-05-22T06:39:16.096Z,16.80
2019-05-22T06:44:32.156Z,16.90
2019-05-22T06:49:43.119Z,17.00
2019-05-22T06:54:47.050Z,17.00
2019-05-22T07:00:10.799Z,17.10
2019-05-22T07:04:56.396Z,17.30
2019-05-22T07:10:06.273Z,17.40
2019-05-22T07:15:53.785Z,17.50
2019-05-22T07:20:59.530Z,17.50
2019-05-22T07:26:03.553Z,17.70
2019-05-22T07:31:06.693Z,17.60
2019-05-22T07:36:15.316Z,17.60
2019-05-22T07:41:15.287Z,17.70
2019-05-22T07:46:20.169Z,17.80
2019-05-22T07:51:25.491Z,17.80
2019-05-22T07:56:29.190Z,17.60
2019-05-22T08:01:33.326Z,17.60
2019-05-22T08:06:38.323Z,17.50
2019-05-22T08:11:41.196Z,17.40
2019-05-22T08:16:45.272Z,17.30
2019-05-22T08:21:48.098Z,17.40
2019-05-22T08:26:54.497Z,17.40
2019-05-22T08:31:58.219Z,17.10
2019-05-22T08:37:03.488Z,16.90
2019-05-22T08:42:08.873Z,16.80
2019-05-22T08:47:12.146Z,16.70
2019-05-22T08:52:23.664Z,16.60
2019-05-22T08:57:21.838Z,16.70
2019-05-22T09:02:26.817Z,16.70
2019-05-22T09:07:31.012Z,16.60
2019-05-22T09:12:34.270Z,17.10
2019-05-22T09:17:37.581Z,17.90
2019-05-22T09:22:41.613Z,18.40
2019-05-22T09:27:44.764Z,18.60
2019-05-22T09:32:48.301Z,18.90
2019-05-22T09:37:51.217Z,19.00
2019-05-22T09:42:54.253Z,18.90
2019-05-22T09:47:57.762Z,18.30
2019-05-22T09:53:02.397Z,17.90
2019-05-22T09:58:05.760Z,17.70
2019-05-22T10:03:09.542Z,17.30
2019-05-22T10:08:13.044Z,17.10
2019-05-22T10:13:15.896Z,17.20
2019-05-22T10:18:19.373Z,17.00
2019-05-22T10:23:23.154Z,16.80
2019-05-22T10:28:26.749Z,16.70
2019-05-22T10:33:29.561Z,16.90
2019-05-22T10:38:32.398Z,17.10
2019-05-22T10:43:35.744Z,17.20
2019-05-22T10:48:40.347Z,17.50
2019-05-22T10:53:45.046Z,17.50
2019-05-22T10:58:48.496Z,17.40
2019-05-22T11:03:51.139Z,17.20
2019-05-22T11:08:55.534Z,17.10
2019-05-22T11:14:01.921Z,16.90
2019-05-22T11:19:05.327Z,16.90
2019-05-22T11:24:08.401Z,17.00
2019-05-22T11:29:11.331Z,16.80
2019-05-22T11:34:14.515Z,16.70
2019-05-22T11:39:37.992Z,16.50
2019-05-22T11:44:27.211Z,16.30
2019-05-22T11:49:30.446Z,16.40
2019-05-22T11:54:33.986Z,16.50
2019-05-22T11:59:38.219Z,16.40
2019-05-22T12:04:47.838Z,16.60
2019-05-22T12:09:47.258Z,16.60
2019-05-22T12:14:51.106Z,16.50
2019-05-22T12:19:56.425Z,16.80
2019-05-22T12:25:01.366Z,16.80
2019-05-22T12:30:05.593Z,16.70
2019-05-22T12:35:10.605Z,16.80
2019-05-22T12:40:17.358Z,16.50
2019-05-22T12:45:25.983Z,16.40
2019-05-22T12:50:30.937Z,16.10
2019-05-22T12:55:34.226Z,15.50
2019-05-22T13:00:37.860Z,15.20
2019-05-22T13:05:41.204Z,15.20
2019-05-22T13:10:45.032Z,14.90
2019-05-22T13:15:51.424Z,14.80
2019-05-22T13:20:59.363Z,14.60
2019-05-22T13:26:04.926Z,14.50
2019-05-22T13:31:09.378Z,14.30
2019-05-22T13:36:22.594Z,14.10
2019-05-22T13:41:26.310Z,13.90
2019-05-22T13:46:29.900Z,13.70
2019-05-22T13:51:33.323Z,13.50
2019-05-22T13:56:38.736Z,13.70
2019-05-22T14:01:41.639Z,13.70
2019-05-22T14:06:45.650Z,13.40
2019-05-22T14:11:48.617Z,13.30
2019-05-22T14:16:51.929Z,13.20
2019-05-22T14:21:54.728Z,13.10
2019-05-22T14:27:00.649Z,13.00
2019-05-22T14:32:04.768Z,13.00
2019-05-22T14:37:08.622Z,12.80
2019-05-22T14:42:35.452Z,12.80
2019-05-22T14:47:38.521Z,12.80
2019-05-22T14:52:45.169Z,12.60
2019-05-22T14:57:51.104Z,12.30
2019-05-22T15:02:57.800Z,12.20
2019-05-22T15:08:05.662Z,12.20
2019-05-22T15:13:09.236Z,12.10
2019-05-22T15:18:23.047Z,12.10
2019-05-22T15:23:33.835Z,11.90
2019-05-22T15:28:36.887Z,11.80
2019-05-22T15:33:40.600Z,11.70
2019-05-22T15:38:45.647Z,11.50
2019-05-22T15:43:53.068Z,11.60
2019-05-22T15:48:59.088Z,11.70
2019-05-22T15:54:10.504Z,11.70
2019-05-22T15:59:14.041Z,11.70
2019-05-22T16:04:19.317Z,11.50
2019-05-22T16:09:24.936Z,11.40
2019-05-22T16:14:30.673Z,11.40
2019-05-22T16:19:34.772Z,11.40
2019-05-22T16:24:38.731Z,11.40
2019-05-22T16:29:42.613Z,11.40
2019-05-22T16:34:48.303Z,11.30
2019-05-22T16:39:51.087Z,11.20
2019-05-22T16:44:55.781Z,11.20
2019-05-22T16:49:58.983Z,11.20
2019-05-22T16:55:02.038Z,11.10
2019-05-22T17:00:05.648Z,11.20
2019-05-22T17:05:10.517Z,11.10
2019-05-22T17:10:14.188Z,11.10
2019-05-22T17:15:19.733Z,11.00
2019-05-22T17:20:25.465Z,11.10
2019-05-22T17:25:29.679Z,11.10
2019-05-22T17:30:34.209Z,11.20
2019-05-22T17:35:38.005Z,11.10
2019-05-22T17:40:41.243Z,11.10
2019-05-22T17:45:45.392Z,11.00
2019-05-22T17:50:48.412Z,11.10
2019-05-22T17:55:51.326Z,11.10
2019-05-22T18:00:55.247Z,11.00
2019-05-22T18:05:59.640Z,11.00
2019-05-22T18:11:06.820Z,10.90
2019-05-22T18:16:10.134Z,11.00
2019-05-22T18:21:14.159Z,11.00
2019-05-22T18:26:17.369Z,10.90
2019-05-22T18:31:19.936Z,11.00
2019-05-22T18:36:22.574Z,11.00
2019-05-22T18:41:26.212Z,10.90
2019-05-22T18:46:29.088Z,10.80
2019-05-22T18:51:32.032Z,10.80
2019-05-22T18:56:34.898Z,10.80
2019-05-22T19:01:37.612Z,10.80
2019-05-22T19:06:40.465Z,10.80
2019-05-22T19:11:45.653Z,10.80
2019-05-22T19:16:48.723Z,10.80
2019-05-22T19:21:51.619Z,10.80
2019-05-22T19:26:54.592Z,10.80
2019-05-22T19:31:57.295Z,10.70
2019-05-22T19:37:00.958Z,10.70
2019-05-22T19:42:05.745Z,10.60
2019-05-22T19:47:08.727Z,10.70
2019-05-22T19:52:12.862Z,10.70
2019-05-22T19:57:15.888Z,10.60
2019-05-22T20:02:23.439Z,10.70
2019-05-22T20:07:27.016Z,10.60
2019-05-22T20:12:30.772Z,10.60
2019-05-22T20:17:34.479Z,10.50
2019-05-22T20:22:37.728Z,10.60
2019-05-22T20:27:41.645Z,10.50
2019-05-22T20:32:44.990Z,10.50
2019-05-22T20:37:48.462Z,10.60
2019-05-22T20:42:51.790Z,10.60
2019-05-22T20:48:11.726Z,10.60
2019-05-22T20:53:15.741Z,10.50
2019-05-22T20:58:20.436Z,10.50
2019-05-22T21:03:24.174Z,10.50
2019-05-22T21:08:28.952Z,10.50
2019-05-22T21:13:32.106Z,10.40
2019-05-22T21:18:42.905Z,10.40
2019-05-22T21:23:45.969Z,10.40
2019-05-22T21:28:49.159Z,10.40
2019-05-22T21:33:52.214Z,10.40
2019-05-22T21:38:55.093Z,10.30
2019-05-22T21:43:58.150Z,10.40
2019-05-22T21:49:00.930Z,10.30
2019-05-22T21:54:06.088Z,10.30
2019-05-22T21:59:09.860Z,10.30
2019-05-22T22:04:25.591Z,10.30
2019-05-22T22:09:30.046Z,10.40
2019-05-22T22:14:34.481Z,10.30
2019-05-22T22:19:37.954Z,10.30
2019-05-22T22:24:40.727Z,10.20
2019-05-22T22:29:43.605Z,10.30
2019-05-22T22:34:50.663Z,10.30
2019-05-22T22:39:56.448Z,10.20
2019-05-22T22:44:59.923Z,10.20
2019-05-22T22:50:04.304Z,10.20
2019-05-22T22:55:10.501Z,10.20
2019-05-22T23:00:16.658Z,10.20
2019-05-22T23:05:19.951Z,10.20
2019-05-22T23:10:23.749Z,10.10
2019-05-22T23:15:26.974Z,10.10
2019-05-22T23:20:28.868Z,10.00
2019-05-22T23:25:39.395Z,10.10
2019-05-22T23:30:42.423Z,10.10
2019-05-22T23:35:45.559Z,10.00
2019-05-22T23:40:49.725Z,10.00
2019-05-22T23:45:52.890Z,10.00
2019-05-22T23:50:55.676Z,9.90
2019-05-22T23:55:59.669Z,9.90
